Time;durP1;ratioP1;P1;durP2;ratioP2;P2;SDS_P1;SDS_P2;PMS_P1;PMS_P2;Temp;Humidity;BMP_temperature;BMP_pressure;BME280_temperature;BME280_humidity;BME280_pressure;Samples;Min_cycle;Max_cycle;Signal;HPM_P1;HPM_P2
2022/04/25 00:00:35;;;;;;;8.25;1.67;;;;;;;13.61;65.52;100750.59;2094183;28;20048;-73
2022/04/25 00:01:57;;;;;;;9.00;1.70;;;;;;;13.56;65.61;100749.69;2102940;28;20110;-73
2022/04/25 00:03:20;;;;;;;12.13;1.70;;;;;;;13.51;65.61;100747.03;2105538;28;20052;-74
2022/04/25 00:04:41;;;;;;;14.68;1.92;;;;;;;13.45;65.85;100747.03;2095589;28;20140;-73
2022/04/25 00:06:06;;;;;;;9.23;1.40;;;;;;;13.39;65.94;100749.63;2099129;28;20143;-74
2022/04/25 00:07:27;;;;;;;7.97;1.25;;;;;;;13.35;65.93;100755.81;2093648;28;20115;-73
2022/04/25 00:08:50;;;;;;;13.73;1.67;;;;;;;13.36;66.32;100757.59;2093986;28;20049;-73
2022/04/25 00:10:13;;;;;;;4.80;1.27;;;;;;;13.36;66.35;100760.22;2102942;28;20052;-73
2022/04/25 00:11:36;;;;;;;9.07;1.30;;;;;;;13.40;66.07;100762.00;2103357;28;20059;-73
2022/04/25 00:12:58;;;;;;;9.90;1.42;;;;;;;13.42;66.01;100764.66;2093442;28;20144;-73
2022/04/25 00:14:21;;;;;;;10.20;2.50;;;;;;;13.41;66.03;100758.47;2091227;28;20051;-72
2022/04/25 00:15:43;;;;;;;8.45;1.83;;;;;;;13.42;65.88;100759.38;2086383;28;20488;-74
2022/04/25 00:17:05;;;;;;;7.53;1.70;;;;;;;13.41;65.64;100762.88;2100707;28;20534;-73
2022/04/25 00:18:28;;;;;;;6.10;1.35;;;;;;;13.38;65.61;100761.13;2097697;28;20067;-73
2022/04/25 00:19:50;;;;;;;9.90;1.77;;;;;;;13.39;65.60;100762.88;2093888;28;20082;-73
2022/04/25 00:21:15;;;;;;;8.95;1.88;;;;;;;13.39;65.72;100760.22;2100031;28;20040;-73
2022/04/25 00:22:36;;;;;;;12.70;2.05;;;;;;;13.38;65.70;100755.84;2102871;28;20074;-73
2022/04/25 00:23:59;;;;;;;13.43;2.00;;;;;;;13.38;65.93;100760.25;2097136;28;20545;-73
2022/04/25 00:25:22;;;;;;;8.88;1.98;;;;;;;13.35;65.73;100758.44;2094618;28;20040;-73
2022/04/25 00:26:44;;;;;;;8.02;1.50;;;;;;;13.29;66.24;100755.78;2096361;28;20131;-73
2022/04/25 00:28:07;;;;;;;10.10;1.15;;;;;;;13.27;66.43;100759.28;2086069;28;20405;-73
2022/04/25 00:29:29;;;;;;;12.50;1.70;;;;;;;13.26;66.37;100758.41;2107748;28;20485;-73
2022/04/25 00:30:52;;;;;;;11.93;2.53;;;;;;;13.28;65.97;100759.31;2105305;28;20400;-73
2022/04/25 00:32:13;;;;;;;11.10;1.40;;;;;;;13.26;65.90;100758.41;2101495;28;20509;-73
2022/04/25 00:33:36;;;;;;;11.05;1.23;;;;;;;13.29;66.19;100758.44;2107959;28;20105;-74
2022/04/25 00:34:59;;;;;;;6.40;1.67;;;;;;;13.30;66.17;100756.66;2094476;28;20528;-73
2022/04/25 00:36:21;;;;;;;12.73;1.58;;;;;;;13.28;66.27;100755.75;2094088;28;20435;-73
2022/04/25 00:37:44;;;;;;;11.52;2.50;;;;;;;13.27;65.85;100748.69;2090705;28;20043;-73
2022/04/25 00:39:05;;;;;;;4.90;1.33;;;;;;;13.27;65.54;100751.34;2091058;28;20144;-73
2022/04/25 00:40:28;;;;;;;7.38;1.27;;;;;;;13.26;65.96;100745.16;2090798;28;20044;-73
2022/04/25 00:41:51;;;;;;;8.40;1.55;;;;;;;13.24;65.66;100746.94;2092796;28;20211;-72
2022/04/25 00:43:14;;;;;;;8.20;1.67;;;;;;;13.21;65.94;100741.59;2099975;28;20689;-73
2022/04/25 00:44:37;;;;;;;16.40;1.90;;;;;;;13.20;65.92;100745.13;2099548;28;20589;-73
2022/04/25 00:46:00;;;;;;;13.20;1.80;;;;;;;13.20;65.97;100739.81;2109427;28;20582;-73
2022/04/25 00:47:23;;;;;;;12.05;2.00;;;;;;;13.19;65.80;100740.72;2101396;28;20052;-73
2022/04/25 00:48:45;;;;;;;14.10;2.15;;;;;;;13.13;66.26;100740.66;2094499;28;20040;-73
2022/04/25 00:50:09;;;;;;;12.30;1.77;;;;;;;13.14;66.30;100740.69;2102763;28;20082;-73
2022/04/25 00:51:33;;;;;;;10.40;1.77;;;;;;;13.16;66.40;100733.63;2089587;28;20041;-73
2022/04/25 00:52:54;;;;;;;14.85;2.53;;;;;;;13.19;66.65;100742.50;2091079;28;20068;-73
2022/04/25 00:54:17;;;;;;;6.88;2.08;;;;;;;13.16;66.35;100732.75;2098889;28;20587;-73
2022/04/25 00:55:41;;;;;;;12.95;2.28;;;;;;;13.13;66.54;100738.91;2102702;28;20511;-73
2022/04/25 00:57:04;;;;;;;13.65;2.67;;;;;;;13.06;66.79;100736.22;2094395;28;20036;-73
2022/04/25 00:58:27;;;;;;;13.52;2.17;;;;;;;13.00;66.58;100742.34;2102804;28;20528;-73
2022/04/25 00:59:50;;;;;;;9.98;1.92;;;;;;;12.98;66.81;100741.47;2111963;28;20051;-73
2022/04/25 01:01:12;;;;;;;10.13;2.20;;;;;;;12.95;67.08;100743.19;2111824;28;20040;-73
2022/04/25 01:02:34;;;;;;;10.30;1.98;;;;;;;12.95;67.26;100735.25;2097757;28;20076;-73
2022/04/25 01:03:57;;;;;;;11.90;2.42;;;;;;;12.97;67.45;100738.81;2104340;28;20491;-73
2022/04/25 01:05:19;;;;;;;12.32;2.20;;;;;;;12.99;67.17;100740.59;2103722;28;20079;-71
2022/04/25 01:06:42;;;;;;;11.23;1.95;;;;;;;13.03;66.79;100739.72;2103303;28;20094;-73
2022/04/25 01:08:05;;;;;;;9.52;1.30;;;;;;;13.03;66.78;100742.38;2105777;28;20044;-73
2022/04/25 01:09:28;;;;;;;7.47;1.85;;;;;;;13.03;66.65;100750.31;2103836;28;20051;-72
2022/04/25 01:10:49;;;;;;;10.85;2.08;;;;;;;13.01;67.03;100743.22;2105816;28;20373;-73
2022/04/25 01:12:12;;;;;;;12.88;1.73;;;;;;;13.02;67.02;100739.72;2102729;28;20052;-72
2022/04/25 01:13:33;;;;;;;8.70;2.38;;;;;;;13.02;66.44;100737.94;2104070;28;20143;-73
2022/04/25 01:15:01;;;;;;;14.30;1.95;;;;;;;13.04;66.32;100733.53;2097285;28;20138;-73
2022/04/25 01:16:22;;;;;;;17.42;1.95;;;;;;;13.02;66.17;100739.72;2097763;28;20039;-73
2022/04/25 01:17:45;;;;;;;12.40;2.08;;;;;;;13.00;66.71;100729.09;2095283;28;20424;-73
2022/04/25 01:19:06;;;;;;;7.13;1.92;;;;;;;13.01;66.33;100727.31;2095572;28;20056;-73
2022/04/25 01:20:28;;;;;;;12.45;2.00;;;;;;;13.01;66.27;100732.63;2095832;28;20068;-72
2022/04/25 01:21:59;;;;;;;9.70;2.65;;;;;;;13.00;66.38;100730.84;2098350;28;20541;-72
2022/04/25 01:28:41;;;;;;;13.25;2.20;;;;;;;12.92;66.65;100732.59;2097529;28;20485;-72
2022/04/25 01:30:09;;;;;;;12.93;2.75;;;;;;;12.92;66.55;100727.31;2098109;28;20053;-71
2022/04/25 01:31:31;;;;;;;9.55;2.67;;;;;;;12.88;66.84;100736.09;2079998;28;20514;-71
2022/04/25 01:32:58;;;;;;;10.50;2.25;;;;;;;12.87;67.05;100729.91;2096007;28;20055;-73
2022/04/25 01:34:20;;;;;;;9.90;3.45;;;;;;;12.86;66.95;100733.47;2094538;28;20033;-73
2022/04/25 01:35:42;;;;;;;11.00;3.03;;;;;;;12.86;66.96;100735.22;2097396;28;20115;-74
2022/04/25 01:37:07;;;;;;;7.00;1.80;;;;;;;12.85;66.87;100728.13;2094801;28;20431;-73
2022/04/25 01:38:31;;;;;;;11.25;1.92;;;;;;;12.83;67.27;100725.47;2101990;28;20044;-73
2022/04/25 01:39:54;;;;;;;8.35;1.63;;;;;;;12.79;67.23;100726.34;2093681;28;20121;-73
2022/04/25 01:41:17;;;;;;;9.15;2.20;;;;;;;12.75;67.41;100729.84;2110021;28;20067;-73
2022/04/25 01:42:40;;;;;;;12.32;3.28;;;;;;;12.70;67.55;100728.94;2105341;28;20063;-73
2022/04/25 01:44:02;;;;;;;12.35;2.22;;;;;;;12.68;67.64;100726.25;2111222;28;20044;-73
2022/04/25 01:45:25;;;;;;;12.52;2.15;;;;;;;12.67;68.00;100727.13;2098315;28;20047;-73
2022/04/25 01:46:47;;;;;;;16.67;1.85;;;;;;;12.67;67.63;100729.78;2098851;28;20551;-73
2022/04/25 01:48:09;;;;;;;15.35;2.20;;;;;;;12.65;67.82;100723.63;2102658;28;20055;-73
2022/04/25 01:49:32;;;;;;;10.90;2.33;;;;;;;12.63;67.61;100727.13;2100525;28;20094;-73
2022/04/25 01:50:54;;;;;;;9.27;2.13;;;;;;;12.60;67.75;100721.81;2098143;28;20049;-73
2022/04/25 01:52:22;;;;;;;7.75;1.65;;;;;;;12.57;67.75;100722.66;2098217;28;20051;-73
2022/04/25 01:53:44;;;;;;;10.30;2.25;;;;;;;12.54;68.24;100716.44;2091971;28;20066;-73
2022/04/25 01:55:07;;;;;;;8.45;1.60;;;;;;;12.51;67.97;100712.03;2101130;28;20055;-73
2022/04/25 01:56:29;;;;;;;11.82;2.17;;;;;;;12.51;68.19;100721.75;2103998;28;20403;-73
2022/04/25 01:57:51;;;;;;;11.20;2.38;;;;;;;12.48;68.01;100733.19;2103730;28;20139;-73
2022/04/25 01:59:13;;;;;;;9.60;2.00;;;;;;;12.46;68.52;100728.78;2102893;28;20044;-73
2022/04/25 02:00:35;;;;;;;12.88;2.13;;;;;;;12.49;68.35;100727.00;2096885;28;20107;-72
2022/04/25 02:01:59;;;;;;;7.45;1.50;;;;;;;12.51;68.39;100719.97;2095454;28;20087;-73
2022/04/25 02:03:21;;;;;;;12.45;2.00;;;;;;;12.54;68.05;100724.38;2108367;28;20044;-73
2022/04/25 02:04:44;;;;;;;7.38;1.50;;;;;;;12.57;68.38;100720.03;2098274;28;20143;-73
2022/04/25 02:06:05;;;;;;;13.13;2.38;;;;;;;12.59;68.35;100723.56;2087207;28;20086;-73
2022/04/25 02:07:28;;;;;;;11.68;1.75;;;;;;;12.62;68.42;100717.38;2092277;28;20508;-73
2022/04/25 02:08:51;;;;;;;12.88;2.38;;;;;;;12.60;68.30;100721.81;2103001;28;20392;-73
2022/04/25 02:10:13;;;;;;;14.75;2.75;;;;;;;12.56;68.37;100722.66;2103118;28;20130;-73
2022/04/25 02:11:35;;;;;;;12.63;2.40;;;;;;;12.55;68.71;100723.53;2106470;28;20055;-73
2022/04/25 02:12:57;;;;;;;13.50;1.95;;;;;;;12.55;68.49;100718.22;2102529;28;20151;-73
2022/04/25 02:14:20;;;;;;;9.18;1.95;;;;;;;12.51;68.37;100713.78;2110693;28;20067;-73
2022/04/25 02:15:43;;;;;;;8.52;1.65;;;;;;;12.50;68.31;100718.19;2106257;28;20516;-73
2022/04/25 02:17:05;;;;;;;10.77;2.13;;;;;;;12.47;68.51;100709.38;2101928;28;20056;-73
2022/04/25 02:18:27;;;;;;;13.70;2.58;;;;;;;12.48;68.50;100717.28;2103241;28;20047;-73
2022/04/25 02:19:49;;;;;;;8.63;1.27;;;;;;;12.51;69.05;100711.16;2102984;28;20076;-72
2022/04/25 02:21:11;;;;;;;13.65;1.98;;;;;;;12.51;68.88;100719.09;2103872;28;20131;-73
2022/04/25 02:22:36;;;;;;;13.07;2.47;;;;;;;12.53;68.73;100715.59;2093753;28;20518;-73
2022/04/25 02:23:58;;;;;;;18.33;2.30;;;;;;;12.54;69.24;100709.38;2101957;28;20051;-73
2022/04/25 02:25:21;;;;;;;12.30;2.20;;;;;;;12.55;69.42;100715.56;2112259;28;20467;-73
2022/04/25 02:26:43;;;;;;;8.27;2.08;;;;;;;12.52;69.27;100705.88;2097662;28;20040;-74
2022/04/25 02:28:06;;;;;;;10.85;2.80;;;;;;;12.51;69.34;100704.09;2106888;28;20396;-74
2022/04/25 02:29:27;;;;;;;11.15;2.92;;;;;;;12.51;69.40;100703.22;2112784;28;20042;-74
2022/04/25 02:30:51;;;;;;;16.83;2.70;;;;;;;12.52;69.33;100704.97;2105056;28;20036;-73
2022/04/25 02:32:13;;;;;;;15.43;3.30;;;;;;;12.52;69.65;100703.22;2092684;28;20135;-73
2022/04/25 02:33:36;;;;;;;14.02;2.70;;;;;;;12.51;69.58;100698.81;2100188;28;20051;-74
2022/04/25 02:34:59;;;;;;;19.00;2.85;;;;;;;12.49;69.37;100704.94;2094305;28;20048;-73
2022/04/25 02:36:21;;;;;;;11.27;2.25;;;;;;;12.47;69.69;100704.94;2101071;28;20519;-73
2022/04/25 02:37:43;;;;;;;12.32;2.10;;;;;;;12.44;69.67;100702.28;2102365;28;20081;-73
2022/04/25 02:39:07;;;;;;;14.43;3.10;;;;;;;12.43;69.52;100710.19;2104987;28;20047;-74
2022/04/25 02:40:29;;;;;;;11.30;2.53;;;;;;;12.43;70.03;100704.91;2107367;28;20436;-74
2022/04/25 02:41:51;;;;;;;9.30;2.42;;;;;;;12.49;70.10;100704.94;2103578;28;20139;-74
2022/04/25 02:43:12;;;;;;;16.75;2.42;;;;;;;12.54;70.10;100698.81;2105185;28;20097;-73
2022/04/25 02:44:35;;;;;;;15.50;2.92;;;;;;;12.56;70.28;100699.72;2105258;28;20456;-73
2022/04/25 02:45:56;;;;;;;16.05;3.45;;;;;;;12.59;70.02;100705.03;2106152;28;20048;-73
2022/04/25 02:47:19;;;;;;;18.38;3.75;;;;;;;12.57;69.73;100700.59;2094991;28;20516;-74
2022/04/25 02:48:42;;;;;;;16.02;2.15;;;;;;;12.52;70.25;100703.22;2109253;28;20039;-74
2022/04/25 02:50:06;;;;;;;13.25;2.58;;;;;;;12.47;70.34;100707.56;2096562;28;20190;-73
2022/04/25 02:51:29;;;;;;;12.13;2.97;;;;;;;12.44;70.49;100707.56;2101157;28;20131;-73
2022/04/25 02:52:53;;;;;;;15.57;2.92;;;;;;;12.45;70.68;100713.75;2105751;28;20082;-73
2022/04/25 02:54:17;;;;;;;21.55;2.63;;;;;;;12.48;70.64;100709.34;2103856;28;20039;-73
2022/04/25 02:55:38;;;;;;;14.73;2.20;;;;;;;12.48;70.55;100706.69;2103377;28;20629;-73
2022/04/25 02:57:01;;;;;;;14.93;2.20;;;;;;;12.48;70.40;100706.69;2096470;28;20048;-74
2022/04/25 02:58:23;;;;;;;12.35;2.47;;;;;;;12.51;70.33;100711.16;2093739;28;20125;-74
2022/04/25 02:59:46;;;;;;;14.15;2.10;;;;;;;12.49;70.97;100708.47;2100536;28;20056;-74
2022/04/25 03:01:09;;;;;;;13.88;2.53;;;;;;;12.46;70.80;100711.13;2099784;28;20072;-74
2022/04/25 03:02:31;;;;;;;10.27;2.28;;;;;;;12.43;70.84;100708.44;2102283;28;20044;-74
2022/04/25 03:03:53;;;;;;;10.55;2.38;;;;;;;12.43;70.81;100715.50;2093584;28;20048;-73
2022/04/25 03:05:14;;;;;;;9.57;2.30;;;;;;;12.41;71.16;100712.81;2100777;28;20092;-73
2022/04/25 03:06:37;;;;;;;14.32;2.38;;;;;;;12.42;71.32;100714.59;2094824;28;20538;-74
2022/04/25 03:08:00;;;;;;;11.82;2.50;;;;;;;12.42;71.33;100713.72;2108722;28;20166;-73
2022/04/25 03:09:24;;;;;;;10.18;2.22;;;;;;;12.44;71.20;100711.97;2111723;28;20496;-74
2022/04/25 03:10:47;;;;;;;17.38;3.17;;;;;;;12.44;71.46;100714.63;2111707;28;20049;-73
2022/04/25 03:12:11;;;;;;;8.35;2.03;;;;;;;12.46;71.59;100718.19;2096577;28;20040;-73
2022/04/25 03:13:34;;;;;;;10.68;2.40;;;;;;;12.42;71.77;100721.66;2107127;28;20035;-73
2022/04/25 03:14:55;;;;;;;22.02;4.28;;;;;;;12.36;71.90;100718.09;2105174;28;20062;-73
2022/04/25 03:16:18;;;;;;;14.25;2.45;;;;;;;12.36;71.83;100722.50;2105980;28;20060;-72
2022/04/25 03:17:41;;;;;;;11.55;2.42;;;;;;;12.36;72.06;100726.03;2094228;28;20075;-73
2022/04/25 03:19:04;;;;;;;15.05;2.92;;;;;;;12.35;71.75;100723.38;2108744;28;20067;-73
2022/04/25 03:20:25;;;;;;;12.48;2.20;;;;;;;12.37;72.01;100721.63;2105982;28;20048;-73
2022/04/25 03:21:47;;;;;;;15.93;2.80;;;;;;;12.38;72.01;100719.00;2102578;28;20443;-73
2022/04/25 03:23:09;;;;;;;18.75;2.65;;;;;;;12.43;72.02;100723.44;2102852;28;20059;-73
2022/04/25 03:24:33;;;;;;;10.27;3.10;;;;;;;12.47;72.00;100730.53;2086145;28;20057;-73
2022/04/25 03:25:55;;;;;;;8.40;2.50;;;;;;;12.48;72.15;100730.53;2098783;28;20142;-73
2022/04/25 03:27:18;;;;;;;;;;;;;;;12.49;72.20;100732.31;2102302;28;20052;-73
2022/04/25 03:28:40;;;;;;;16.35;3.30;;;;;;;12.46;71.77;100732.31;2102256;28;20253;-73
2022/04/25 03:30:02;;;;;;;19.73;3.65;;;;;;;12.47;72.08;100731.41;2095053;28;20500;-73
2022/04/25 03:31:25;;;;;;;17.45;3.22;;;;;;;12.48;71.99;100730.53;2099435;28;20056;-73
2022/04/25 03:32:47;;;;;;;22.75;4.45;;;;;;;12.48;71.97;100741.13;2100441;28;20094;-73
2022/04/25 03:34:09;;;;;;;17.27;4.05;;;;;;;12.44;72.10;100735.81;2102252;28;20043;-74
2022/04/25 03:35:32;;;;;;;17.60;3.83;;;;;;;12.42;71.67;100738.44;2109951;28;20049;-73
2022/04/25 03:36:56;;;;;;;11.15;2.15;;;;;;;12.40;72.21;100739.31;2104653;28;20109;-74
2022/04/25 03:38:21;;;;;;;9.23;1.75;;;;;;;12.40;71.98;100745.50;2094599;28;20078;-75
2022/04/25 03:39:46;;;;;;;11.38;2.15;;;;;;;12.39;72.48;100743.72;2092391;28;20144;-74
2022/04/25 03:41:08;;;;;;;13.20;3.22;;;;;;;12.39;72.34;100746.38;2100583;28;20040;-74
2022/04/25 03:42:30;;;;;;;16.70;3.42;;;;;;;12.41;72.21;100744.59;2085687;28;20080;-74
2022/04/25 03:43:52;;;;;;;15.00;3.15;;;;;;;12.40;72.27;100748.16;2095300;28;20300;-74
2022/04/25 03:45:16;;;;;;;16.10;3.92;;;;;;;12.44;72.15;100741.09;2102956;28;20055;-73
2022/04/25 03:46:38;;;;;;;12.18;3.05;;;;;;;12.48;72.11;100750.81;2102485;28;20162;-74
2022/04/25 03:48:01;;;;;;;8.98;2.85;;;;;;;12.54;72.12;100743.81;2102930;28;20147;-74
2022/04/25 03:49:22;;;;;;;19.40;2.95;;;;;;;12.61;72.40;100742.97;2104657;28;20097;-74
2022/04/25 03:50:45;;;;;;;14.05;3.28;;;;;;;12.69;72.37;100740.38;2095642;28;20048;-73
2022/04/25 03:52:08;;;;;;;16.70;3.65;;;;;;;12.75;72.45;100736.03;2105787;28;20035;-73
2022/04/25 03:53:31;;;;;;;17.70;3.42;;;;;;;12.76;72.47;100736.91;2088538;28;20141;-74
2022/04/25 03:58:14;;;;;;;6.95;1.95;;;;;;;12.71;73.20;100739.53;2105051;28;20039;-73
2022/04/25 03:59:36;;;;;;;8.80;1.80;;;;;;;12.62;73.16;100742.13;2102847;28;20060;-74
2022/04/25 04:01:02;;;;;;;14.88;2.30;;;;;;;12.60;73.65;100746.50;2095750;28;20442;-74
2022/04/25 04:02:24;;;;;;;19.27;3.15;;;;;;;12.72;73.70;100743.06;2100589;28;20054;-73
2022/04/25 04:03:46;;;;;;;20.52;2.80;;;;;;;12.86;73.60;100745.81;2094644;28;20071;-74
2022/04/25 04:05:08;;;;;;;10.05;2.95;;;;;;;13.05;73.62;100745.94;2102715;28;20055;-74
2022/04/25 04:06:31;;;;;;;13.90;2.38;;;;;;;13.23;73.39;100746.91;2102994;28;20040;-74
2022/04/25 04:07:53;;;;;;;14.25;3.50;;;;;;;13.33;73.35;100749.59;2105421;28;20423;-74
2022/04/25 04:10:57;;;;;;;9.00;1.70;;;;;;;13.63;73.37;100745.28;2104267;28;20047;-73
2022/04/25 04:12:20;;;;;;;12.35;2.15;;;;;;;13.76;73.46;100745.34;2088906;28;20040;-74
2022/04/25 04:13:45;;;;;;;17.80;2.08;;;;;;;13.89;73.30;100748.91;2099894;28;20044;-73
2022/04/25 04:15:07;;;;;;;17.13;3.15;;;;;;;14.05;73.43;100750.66;2102697;28;20538;-73
2022/04/25 04:16:30;;;;;;;8.27;2.88;;;;;;;14.19;73.34;100743.59;2101995;28;20047;-73
2022/04/25 04:17:52;;;;;;;10.50;2.30;;;;;;;14.32;73.00;100744.50;2102872;28;20442;-73
2022/04/25 04:19:13;;;;;;;12.13;2.45;;;;;;;14.44;72.70;100735.69;2102620;28;20048;-74
2022/04/25 04:20:36;;;;;;;11.90;2.60;;;;;;;14.55;72.67;100747.19;2097463;28;20052;-73
2022/04/25 04:21:57;;;;;;;14.32;2.60;;;;;;;14.66;72.36;100748.06;2098252;28;20052;-73
2022/04/25 04:23:20;;;;;;;9.32;2.33;;;;;;;14.81;72.44;100740.06;2094078;28;20369;-74
2022/04/25 04:24:41;;;;;;;13.82;2.60;;;;;;;14.92;71.79;100748.00;2098733;28;20098;-74
2022/04/25 04:26:05;;;;;;;15.55;2.45;;;;;;;15.05;71.69;100747.97;2101830;28;20154;-73
2022/04/25 04:27:31;;;;;;;13.98;2.40;;;;;;;15.10;71.19;100748.84;2094700;28;20052;-73
2022/04/25 04:28:53;;;;;;;14.10;2.05;;;;;;;15.23;70.89;100756.81;2101051;28;20052;-73
2022/04/25 04:30:17;;;;;;;13.57;2.20;;;;;;;15.30;70.39;100758.50;2105424;28;20134;-74
2022/04/25 04:31:38;;;;;;;21.20;3.63;;;;;;;15.42;70.62;100761.16;2102375;28;20044;-71
2022/04/25 04:33:01;;;;;;;16.33;2.35;;;;;;;15.58;70.42;100749.56;2102833;28;20048;-70
2022/04/25 04:34:22;;;;;;;15.75;2.42;;;;;;;15.77;70.41;100753.00;2105983;28;20161;-71
2022/04/25 04:37:26;;;;;;;18.13;2.75;;;;;;;16.09;68.52;100756.34;2098474;28;20047;-74
2022/04/25 04:38:47;;;;;;;11.30;2.30;;;;;;;16.24;68.59;100750.91;2095365;28;20539;-72
2022/04/25 04:40:30;;;;;;;11.68;2.00;;;;;;;16.41;67.60;100748.09;2101613;28;20076;-71
2022/04/25 04:41:53;;;;;;;;;;;;;;;16.60;67.25;100743.56;2099196;28;20048;-71
2022/04/25 04:43:16;;;;;;;15.65;3.80;;;;;;;16.78;67.17;100745.16;2103185;28;19965;-71
2022/04/25 04:44:37;;;;;;;16.38;2.10;;;;;;;16.95;66.72;100751.19;2094286;28;20045;-72
2022/04/25 04:45:59;;;;;;;16.17;3.15;;;;;;;17.10;66.72;100746.56;2096121;28;20052;-72
2022/04/25 04:47:22;;;;;;;17.95;3.33;;;;;;;17.30;65.76;100749.00;2101980;28;20491;-72
2022/04/25 04:48:45;;;;;;;12.15;2.00;;;;;;;17.45;65.77;100745.25;2104493;28;20048;-71
2022/04/25 04:50:14;;;;;;;14.50;2.28;;;;;;;17.62;65.11;100747.72;2097003;28;20048;-72
2022/04/25 04:51:37;;;;;;;14.93;2.00;;;;;;;17.76;64.67;100749.31;2103625;28;20048;-73
2022/04/25 04:53:01;;;;;;;14.82;2.38;;;;;;;17.92;64.14;100748.19;2094811;28;20143;-72
2022/04/25 04:54:23;;;;;;;11.00;2.58;;;;;;;18.09;63.81;100755.06;2100450;28;20055;-72
2022/04/25 04:55:46;;;;;;;19.08;2.88;;;;;;;18.22;63.12;100744.16;2104524;28;20516;-72
2022/04/25 04:57:10;;;;;;;18.95;2.40;;;;;;;18.40;62.64;100748.31;2103756;28;20082;-72
2022/04/25 04:58:32;;;;;;;11.50;2.70;;;;;;;18.56;62.11;100740.97;2087968;28;20045;-72
2022/04/25 04:59:55;;;;;;;17.85;2.50;;;;;;;18.75;61.26;100744.19;2084883;28;20566;-72
2022/04/25 05:01:17;;;;;;;15.90;3.08;;;;;;;18.93;61.03;100742.06;2101762;28;20524;-72
2022/04/25 05:02:40;;;;;;;14.40;2.28;;;;;;;19.13;60.43;100749.69;2102266;28;20142;-72
2022/04/25 05:04:03;;;;;;;18.73;2.92;;;;;;;19.31;59.65;100743.09;2103188;28;20063;-72
2022/04/25 05:05:26;;;;;;;13.57;2.55;;;;;;;19.45;58.50;100749.03;2092028;28;20054;-72
2022/04/25 05:06:49;;;;;;;17.13;2.70;;;;;;;19.56;57.76;100739.00;2101005;28;20065;-72
2022/04/25 05:08:11;;;;;;;24.55;2.38;;;;;;;19.69;56.83;100747.69;2104038;28;20052;-71
2022/04/25 05:09:32;;;;;;;19.02;2.88;;;;;;;19.86;56.61;100749.06;2106717;28;20082;-72
2022/04/25 05:10:55;;;;;;;12.50;3.55;;;;;;;20.07;55.71;100752.16;2102213;28;20512;-72
2022/04/25 05:12:18;;;;;;;20.08;3.33;;;;;;;20.34;54.90;100747.97;2112526;28;20093;-72
2022/04/25 05:13:41;;;;;;;25.95;5.10;;;;;;;20.59;54.22;100759.84;2098203;28;20052;-72
2022/04/25 05:15:06;;;;;;;37.42;4.82;;;;;;;20.82;52.83;100756.56;2099281;28;20135;-73
2022/04/25 05:16:29;;;;;;;21.20;3.08;;;;;;;21.03;51.75;100755.97;2104110;28;20043;-72
2022/04/25 05:17:53;;;;;;;34.55;4.85;;;;;;;21.25;51.03;100759.00;2095213;28;20041;-72
2022/04/25 05:19:15;;;;;;;23.90;3.80;;;;;;;21.45;50.30;100752.13;2110017;28;20084;-72
2022/04/25 05:20:38;;;;;;;23.38;3.45;;;;;;;21.66;49.46;100755.94;2097952;28;20052;-72
2022/04/25 05:22:01;;;;;;;27.00;3.78;;;;;;;21.84;48.01;100747.34;2095462;28;20040;-72
2022/04/25 05:23:22;;;;;;;29.25;5.53;;;;;;;22.10;47.19;100757.31;2109068;28;20043;-73
2022/04/25 05:24:44;;;;;;;21.73;4.40;;;;;;;22.33;46.77;100758.38;2095113;28;20052;-73
2022/04/25 05:26:07;;;;;;;21.52;3.65;;;;;;;22.55;45.63;100759.44;2094513;28;20098;-72
2022/04/25 05:27:32;;;;;;;26.85;4.68;;;;;;;22.77;45.40;100760.50;2093209;28;20044;-72
2022/04/25 05:28:54;;;;;;;22.88;3.30;;;;;;;22.95;44.61;100759.84;2093372;28;20081;-72
2022/04/25 05:30:17;;;;;;;29.30;4.82;;;;;;;23.18;44.27;100764.41;2106475;28;20051;-72
2022/04/25 05:31:40;;;;;;;31.05;4.68;;;;;;;23.39;43.81;100765.44;2095626;28;20135;-72
2022/04/25 05:33:03;;;;;;;29.02;4.25;;;;;;;23.61;42.99;100768.25;2090098;28;20036;-73
2022/04/25 05:34:25;;;;;;;25.40;3.78;;;;;;;23.77;42.62;100764.88;2092079;28;21630;-72
2022/04/25 05:35:48;;;;;;;28.52;4.82;;;;;;;23.97;42.10;100763.22;2093626;28;20146;-73
2022/04/25 05:37:10;;;;;;;25.58;4.18;;;;;;;24.10;41.75;100764.50;2109741;28;20043;-72
2022/04/25 05:38:33;;;;;;;32.90;5.45;;;;;;;24.23;40.99;100760.41;2103942;28;20036;-73
2022/04/25 05:39:54;;;;;;;31.67;6.10;;;;;;;24.38;40.43;100762.47;2097117;28;20105;-73
2022/04/25 05:41:17;;;;;;;32.40;3.97;;;;;;;24.55;40.15;100769.84;2108261;28;20043;-73
2022/04/25 05:42:41;;;;;;;29.85;4.38;;;;;;;24.72;40.06;100769.16;2102897;28;20048;-73
2022/04/25 05:44:04;;;;;;;27.55;4.38;;;;;;;24.87;39.71;100769.41;2094298;28;20322;-73
2022/04/25 05:45:27;;;;;;;47.70;6.38;;;;;;;25.05;39.36;100761.44;2093272;28;20048;-72
2022/04/25 05:46:50;;;;;;;43.33;6.18;;;;;;;25.23;38.74;100772.31;2098863;28;20043;-73
2022/04/25 05:53:08;;;;;;;25.42;4.22;;;;;;;25.73;37.34;100772.72;2104624;28;20814;-72
2022/04/25 05:54:31;;;;;;;46.38;7.55;;;;;;;25.84;36.84;100765.94;2102996;28;20594;-73
2022/04/25 05:55:52;;;;;;;28.63;3.42;;;;;;;25.98;36.83;100775.19;2097352;28;20411;-73
2022/04/25 05:57:15;;;;;;;26.65;4.68;;;;;;;26.14;36.44;100772.59;2093787;28;20042;-73
2022/04/25 05:58:38;;;;;;;32.00;4.43;;;;;;;26.28;35.88;100771.94;2102834;28;20051;-73
2022/04/25 06:00:00;;;;;;;26.67;4.38;;;;;;;26.35;35.41;100774.28;2103089;28;20508;-72
2022/04/25 06:01:21;;;;;;;28.33;5.03;;;;;;;26.44;35.13;100768.41;2095511;28;20180;-73
2022/04/25 06:02:46;;;;;;;37.90;6.13;;;;;;;26.46;35.22;100771.03;2094613;28;20049;-73
2022/04/25 06:04:09;;;;;;;33.30;4.90;;;;;;;26.55;34.78;100781.41;2100920;28;20044;-72
2022/04/25 06:05:31;;;;;;;30.55;5.28;;;;;;;26.67;34.98;100779.91;2095452;28;20049;-73
2022/04/25 06:06:54;;;;;;;33.78;5.38;;;;;;;26.77;35.14;100783.94;2086804;28;20045;-73
2022/04/25 06:08:16;;;;;;;31.30;5.40;;;;;;;26.82;34.46;100782.72;2094438;28;20048;-73
2022/04/25 06:09:39;;;;;;;28.70;4.78;;;;;;;26.86;33.97;100772.59;2100360;28;20052;-73
2022/04/25 06:11:02;;;;;;;20.25;3.38;;;;;;;26.91;33.50;100778.72;2103823;28;20064;-73
2022/04/25 06:12:24;;;;;;;20.42;3.42;;;;;;;26.89;32.82;100772.47;2103589;28;20094;-73
2022/04/25 06:13:52;;;;;;;20.33;3.83;;;;;;;26.96;32.40;100777.50;2094618;28;20055;-73
2022/04/25 06:15:14;;;;;;;17.95;3.15;;;;;;;27.09;32.42;100785.00;2085110;28;20132;-73
2022/04/25 06:16:36;;;;;;;22.08;5.03;;;;;;;27.14;32.06;100780.22;2097721;28;20056;-73
2022/04/25 06:17:59;;;;;;;16.92;3.30;;;;;;;27.21;32.33;100790.66;2102268;28;20467;-73
2022/04/25 06:19:22;;;;;;;22.10;3.13;;;;;;;27.31;31.64;100785.59;2095179;28;20055;-74
2022/04/25 06:20:44;;;;;;;29.35;3.38;;;;;;;27.40;31.97;100781.53;2091088;28;20048;-73
2022/04/25 06:22:09;;;;;;;25.02;4.43;;;;;;;27.43;31.42;100784.97;2103692;28;20511;-74
2022/04/25 06:23:32;;;;;;;24.13;3.25;;;;;;;27.40;31.44;100787.84;2099404;28;20043;-73
2022/04/25 06:24:54;;;;;;;19.27;3.83;;;;;;;27.35;31.60;100787.22;2095011;28;20053;-73
2022/04/25 06:26:17;;;;;;;25.40;4.03;;;;;;;27.34;31.33;100788.16;2089259;28;20044;-74
2022/04/25 06:27:39;;;;;;;19.95;3.78;;;;;;;27.26;31.14;100788.56;2092203;28;20604;-74
2022/04/25 06:29:04;;;;;;;29.05;4.22;;;;;;;27.24;31.38;100784.19;2086618;28;20045;-74
2022/04/25 06:30:28;;;;;;;19.50;3.90;;;;;;;27.11;31.00;100780.38;2100948;28;20503;-74
2022/04/25 06:31:51;;;;;;;18.08;4.15;;;;;;;27.06;30.94;100777.88;2100904;28;20064;-74
2022/04/25 06:33:13;;;;;;;18.42;5.03;;;;;;;27.05;32.06;100781.56;2089260;28;20048;-74
2022/04/25 06:34:36;;;;;;;32.55;6.38;;;;;;;27.08;31.29;100786.81;2101395;28;20390;-74
2022/04/25 06:35:59;;;;;;;20.73;5.20;;;;;;;27.04;31.28;100785.25;2086964;28;20114;-74
2022/04/25 06:37:22;;;;;;;23.38;4.35;;;;;;;27.00;31.74;100780.03;2096613;28;20050;-74
2022/04/25 06:38:44;;;;;;;18.45;3.13;;;;;;;26.98;31.57;100781.97;2091455;28;20049;-74